sensor_id;sensor_type;location;lat;lon;timestamp;P1;P4;P2;P0;N10;N4;N25;N1;N05;TS
62742;SPS30;48791;51.636;6.010;2023-11-19T00:01:40;4.52;4.52;4.52;4.27;34.11;34.10;34.09;33.95;29.08;0.44
62742;SPS30;48791;51.636;6.010;2023-11-19T00:04:16;4.82;4.82;4.82;4.56;36.43;36.42;36.41;36.26;31.06;0.43
62742;SPS30;48791;51.636;6.010;2023-11-19T00:06:46;4.75;4.75;4.75;4.49;35.89;35.88;35.87;35.73;30.60;0.43
62742;SPS30;48791;51.636;6.010;2023-11-19T00:09:16;4.89;4.89;4.89;4.62;36.91;36.90;36.89;36.74;31.47;0.45
62742;SPS30;48791;51.636;6.010;2023-11-19T00:11:46;4.71;4.71;4.71;4.46;35.59;35.59;35.57;35.43;30.35;0.45
62742;SPS30;48791;51.636;6.010;2023-11-19T00:14:18;4.65;4.65;4.65;4.40;35.15;35.14;35.13;34.99;29.97;0.44
62742;SPS30;48791;51.636;6.010;2023-11-19T00:16:48;4.81;4.81;4.81;4.55;36.30;36.29;36.28;36.13;30.95;0.47
62742;SPS30;48791;51.636;6.010;2023-11-19T00:19:20;4.95;4.95;4.95;4.68;37.38;37.37;37.36;37.21;31.87;0.48
62742;SPS30;48791;51.636;6.010;2023-11-19T00:21:50;5.27;5.27;5.27;4.98;39.76;39.75;39.74;39.58;33.90;0.47
62742;SPS30;48791;51.636;6.010;2023-11-19T00:24:20;5.03;5.03;5.03;4.76;38.02;38.01;38.00;37.84;32.41;0.45
62742;SPS30;48791;51.636;6.010;2023-11-19T00:26:50;5.17;5.17;5.17;4.89;39.02;39.01;39.00;38.84;33.27;0.46
62742;SPS30;48791;51.636;6.010;2023-11-19T00:29:20;5.11;5.11;5.11;4.83;38.59;38.58;38.57;38.42;32.90;0.44
62742;SPS30;48791;51.636;6.010;2023-11-19T00:31:49;4.92;4.92;4.92;4.66;37.18;37.18;37.16;37.01;31.70;0.46
62742;SPS30;48791;51.636;6.010;2023-11-19T00:34:22;5.08;5.08;5.08;4.81;38.39;38.39;38.37;38.22;32.74;0.47
62742;SPS30;48791;51.636;6.010;2023-11-19T00:36:52;5.31;5.31;5.31;5.02;40.07;40.06;40.05;39.89;34.17;0.46
62742;SPS30;48791;51.636;6.010;2023-11-19T00:39:22;4.90;4.90;4.90;4.64;37.03;37.03;37.01;36.87;31.58;0.46
62742;SPS30;48791;51.636;6.010;2023-11-19T00:41:52;5.09;5.09;5.09;4.81;38.41;38.41;38.39;38.24;32.75;0.46
62742;SPS30;48791;51.636;6.010;2023-11-19T00:44:22;5.17;5.17;5.17;4.89;39.05;39.04;39.03;38.87;33.29;0.47
62742;SPS30;48791;51.636;6.010;2023-11-19T00:46:52;5.29;5.29;5.29;5.00;39.95;39.94;39.93;39.77;34.06;0.47
62742;SPS30;48791;51.636;6.010;2023-11-19T00:49:24;5.00;5.00;5.00;4.73;37.74;37.74;37.72;37.57;32.18;0.46
62742;SPS30;48791;51.636;6.010;2023-11-19T00:51:54;4.56;4.56;4.56;4.31;34.42;34.41;34.40;34.26;29.34;0.45
62742;SPS30;48791;51.636;6.010;2023-11-19T00:54:24;4.69;4.69;4.69;4.43;35.40;35.40;35.38;35.24;30.19;0.45
62742;SPS30;48791;51.636;6.010;2023-11-19T00:56:54;4.43;4.43;4.43;4.19;33.43;33.42;33.41;33.28;28.50;0.45
62742;SPS30;48791;51.636;6.010;2023-11-19T00:59:24;4.49;4.49;4.49;4.25;33.92;33.91;33.90;33.77;28.92;0.47
62742;SPS30;48791;51.636;6.010;2023-11-19T01:01:55;4.44;4.44;4.44;4.20;33.51;33.51;33.49;33.36;28.57;0.48
62742;SPS30;48791;51.636;6.010;2023-11-19T01:04:28;4.45;4.45;4.45;4.21;33.59;33.58;33.57;33.43;28.64;0.48
62742;SPS30;48791;51.636;6.010;2023-11-19T01:06:59;4.40;4.40;4.40;4.16;33.24;33.23;33.22;33.09;28.34;0.47
62742;SPS30;48791;51.636;6.010;2023-11-19T01:09:30;4.20;4.20;4.20;3.97;31.68;31.67;31.66;31.53;27.01;0.48
62742;SPS30;48791;51.636;6.010;2023-11-19T01:12:02;4.61;4.61;4.61;4.36;34.79;34.78;34.77;34.63;29.66;0.50
62742;SPS30;48791;51.636;6.010;2023-11-19T01:14:32;4.18;4.18;4.18;3.95;31.56;31.55;31.54;31.42;26.91;0.50
62742;SPS30;48791;51.636;6.010;2023-11-19T01:17:02;4.04;4.04;4.04;3.82;30.50;30.49;30.48;30.36;26.01;0.47
62742;SPS30;48791;51.636;6.010;2023-11-19T01:19:34;3.75;3.75;3.75;3.55;28.34;28.33;28.32;28.21;24.16;0.48
62742;SPS30;48791;51.636;6.010;2023-11-19T01:22:04;3.71;3.71;3.71;3.51;27.99;27.99;27.98;27.86;23.87;0.48
62742;SPS30;48791;51.636;6.010;2023-11-19T01:24:34;3.51;3.51;3.51;3.32;26.52;26.51;26.50;26.40;22.61;0.49
62742;SPS30;48791;51.636;6.010;2023-11-19T01:27:04;3.54;3.54;3.54;3.35;26.74;26.74;26.73;26.62;22.80;0.49
62742;SPS30;48791;51.636;6.010;2023-11-19T01:29:35;3.17;3.17;3.17;3.00;23.95;23.95;23.94;23.84;20.42;0.48
62742;SPS30;48791;51.636;6.010;2023-11-19T01:32:06;3.26;3.26;3.26;3.08;24.58;24.57;24.57;24.47;20.96;0.49
62742;SPS30;48791;51.636;6.010;2023-11-19T01:34:38;3.13;3.13;3.13;2.96;23.67;23.67;23.66;23.56;20.18;0.50
62742;SPS30;48791;51.636;6.010;2023-11-19T01:37:08;3.37;3.37;3.37;3.19;25.47;25.47;25.46;25.36;21.72;0.51
62742;SPS30;48791;51.636;6.010;2023-11-19T01:39:39;3.20;3.19;3.16;2.96;23.60;23.60;23.58;23.45;20.05;0.52
62742;SPS30;48791;51.636;6.010;2023-11-19T01:42:09;3.37;3.36;3.33;3.11;24.83;24.83;24.81;24.67;21.09;0.53
62742;SPS30;48791;51.636;6.010;2023-11-19T01:44:39;3.32;3.31;3.28;3.06;24.45;24.44;24.43;24.29;20.76;0.54
62742;SPS30;48791;51.636;6.010;2023-11-19T01:47:08;3.31;3.30;3.26;3.04;24.28;24.28;24.26;24.12;20.61;0.53
62742;SPS30;48791;51.636;6.010;2023-11-19T01:49:41;3.27;3.25;3.16;2.88;23.01;23.00;22.97;22.77;19.39;0.55
62742;SPS30;48791;51.636;6.010;2023-11-19T01:52:11;3.65;3.62;3.47;3.10;24.82;24.81;24.77;24.50;20.79;0.56
62742;SPS30;48791;51.636;6.010;2023-11-19T01:54:41;3.51;3.47;3.29;2.89;23.15;23.14;23.08;22.78;19.28;0.55
62742;SPS30;48791;51.636;6.010;2023-11-19T01:57:12;3.68;3.63;3.39;2.92;23.39;23.37;23.31;22.94;19.34;0.56
62742;SPS30;48791;51.636;6.010;2023-11-19T01:59:42;3.60;3.56;3.35;2.93;23.41;23.39;23.34;23.01;19.44;0.55
62742;SPS30;48791;51.636;6.010;2023-11-19T02:02:13;3.41;3.38;3.23;2.87;22.97;22.96;22.92;22.65;19.21;0.54
62742;SPS30;48791;51.636;6.010;2023-11-19T02:04:50;3.72;3.68;3.49;3.08;24.64;24.62;24.57;24.26;20.53;0.55
62742;SPS30;48791;51.636;6.010;2023-11-19T02:07:21;3.78;3.74;3.56;3.15;25.20;25.19;25.14;24.83;21.03;0.54
62742;SPS30;48791;51.636;6.010;2023-11-19T02:09:51;3.16;3.15;3.10;2.88;23.01;23.01;22.99;22.85;19.51;0.52
62742;SPS30;48791;51.636;6.010;2023-11-19T02:12:20;3.75;3.72;3.59;3.23;25.81;25.80;25.76;25.50;21.66;0.54
62742;SPS30;48791;51.636;6.010;2023-11-19T02:14:50;4.00;3.96;3.73;3.27;26.13;26.12;26.06;25.70;21.73;0.54
62742;SPS30;48791;51.636;6.010;2023-11-19T02:17:26;3.79;3.76;3.57;3.16;25.25;25.24;25.19;24.88;21.07;0.55
62742;SPS30;48791;51.636;6.010;2023-11-19T02:20:00;4.16;4.11;3.86;3.35;26.79;26.78;26.71;26.31;22.21;0.57
62742;SPS30;48791;51.636;6.010;2023-11-19T02:22:30;3.73;3.69;3.46;3.00;23.99;23.97;23.91;23.56;19.88;0.58
62742;SPS30;48791;51.636;6.010;2023-11-19T02:25:01;4.02;3.97;3.70;3.18;25.44;25.43;25.36;24.95;21.02;0.58
62742;SPS30;48791;51.636;6.010;2023-11-19T02:27:46;3.72;3.67;3.41;2.92;23.40;23.39;23.32;22.93;19.31;0.58
62742;SPS30;48791;51.636;6.010;2023-11-19T02:30:19;3.91;3.85;3.54;2.99;23.96;23.94;23.86;23.42;19.67;0.58
62742;SPS30;48791;51.636;6.010;2023-11-19T02:32:52;3.98;3.91;3.57;2.98;23.84;23.82;23.74;23.25;19.48;0.60
62742;SPS30;48791;51.636;6.010;2023-11-19T02:35:24;3.81;3.74;3.43;2.87;23.00;22.99;22.90;22.45;18.83;0.60
62742;SPS30;48791;51.636;6.010;2023-11-19T02:37:54;4.26;4.19;3.86;3.25;26.05;26.03;25.94;25.46;21.38;0.59
62742;SPS30;48791;51.636;6.010;2023-11-19T02:40:24;3.88;3.82;3.54;3.01;24.09;24.07;24.00;23.58;19.83;0.58
62742;SPS30;48791;51.636;6.010;2023-11-19T02:42:56;3.95;3.89;3.59;3.05;24.40;24.38;24.31;23.87;20.07;0.60
62742;SPS30;48791;51.636;6.010;2023-11-19T02:45:26;3.62;3.56;3.27;2.75;22.04;22.03;21.95;21.53;18.07;0.59
62742;SPS30;48791;51.636;6.010;2023-11-19T02:47:57;4.17;4.09;3.74;3.11;24.93;24.92;24.82;24.32;20.37;0.59
62742;SPS30;48791;51.636;6.010;2023-11-19T02:50:28;4.00;3.95;3.65;3.10;24.84;24.82;24.74;24.31;20.44;0.58
62742;SPS30;48791;51.636;6.010;2023-11-19T02:52:58;4.59;4.49;4.01;3.22;25.81;25.79;25.66;25.01;20.80;0.61
62742;SPS30;48791;51.636;6.010;2023-11-19T02:55:28;5.21;5.09;4.48;3.52;28.23;28.20;28.05;27.24;22.56;0.63
62742;SPS30;48791;51.636;6.010;2023-11-19T02:58:05;5.28;5.17;4.62;3.72;29.82;29.79;29.65;28.91;24.06;0.64
62742;SPS30;48791;51.636;6.010;2023-11-19T03:00:47;5.82;5.70;5.10;4.11;32.96;32.93;32.78;31.96;26.61;0.62
62742;SPS30;48791;51.636;6.010;2023-11-19T03:03:24;6.57;6.42;5.66;4.47;35.84;35.81;35.62;34.62;28.68;0.64
62742;SPS30;48791;51.636;6.010;2023-11-19T03:05:58;6.26;6.12;5.39;4.25;34.04;34.01;33.83;32.87;27.22;0.65
62742;SPS30;48791;51.636;6.010;2023-11-19T03:08:31;5.90;5.79;5.22;4.28;34.30;34.27;34.13;33.35;27.85;0.63
62742;SPS30;48791;51.636;6.010;2023-11-19T03:11:02;5.62;5.53;5.05;4.21;33.69;33.67;33.54;32.86;27.53;0.61
62742;SPS30;48791;51.636;6.010;2023-11-19T03:13:34;6.04;5.93;5.35;4.39;35.15;35.12;34.97;34.18;28.54;0.62
62742;SPS30;48791;51.636;6.010;2023-11-19T03:16:05;5.54;5.44;4.92;4.06;32.48;32.45;32.32;31.61;26.42;0.63
62742;SPS30;48791;51.636;6.010;2023-11-19T03:18:35;5.73;5.63;5.12;4.24;33.95;33.92;33.79;33.08;27.68;0.63
62742;SPS30;48791;51.636;6.010;2023-11-19T03:21:06;6.30;6.15;5.42;4.26;34.14;34.11;33.93;32.96;27.29;0.65
62742;SPS30;48791;51.636;6.010;2023-11-19T03:23:36;6.58;6.42;5.58;4.31;34.55;34.52;34.31;33.23;27.40;0.66
62742;SPS30;48791;51.636;6.010;2023-11-19T03:26:07;6.54;6.37;5.51;4.22;33.86;33.82;33.61;32.51;26.76;0.66
62742;SPS30;48791;51.636;6.010;2023-11-19T03:28:39;6.48;6.30;5.42;4.10;32.92;32.89;32.67;31.54;25.90;0.66
62742;SPS30;48791;51.636;6.010;2023-11-19T03:31:09;6.92;6.73;5.74;4.28;34.33;34.29;34.05;32.80;26.84;0.66
62742;SPS30;48791;51.636;6.010;2023-11-19T03:33:39;5.97;5.81;5.01;3.81;30.58;30.55;30.35;29.33;24.10;0.67
62742;SPS30;48791;51.636;6.010;2023-11-19T03:36:09;7.14;6.91;5.76;4.11;33.05;33.00;32.72;31.30;25.35;0.70
62742;SPS30;48791;51.636;6.010;2023-11-19T03:38:39;7.26;7.02;5.83;4.12;33.15;33.10;32.81;31.33;25.32;0.70
62742;SPS30;48791;51.636;6.010;2023-11-19T03:41:12;7.79;7.53;6.24;4.38;35.26;35.20;34.89;33.28;26.86;0.70
62742;SPS30;48791;51.636;6.010;2023-11-19T03:43:45;7.77;7.48;6.04;4.02;32.39;32.33;31.98;30.22;24.05;0.74
62742;SPS30;48791;51.636;6.010;2023-11-19T03:46:16;7.90;7.60;6.09;3.99;32.17;32.11;31.75;29.91;23.70;0.73
62742;SPS30;48791;51.636;6.010;2023-11-19T03:48:46;8.01;7.70;6.16;4.02;32.36;32.30;31.92;30.05;23.77;0.73
62742;SPS30;48791;51.636;6.010;2023-11-19T03:51:16;7.55;7.27;5.85;3.87;31.15;31.10;30.75;29.02;23.05;0.73
62742;SPS30;48791;51.636;6.010;2023-11-19T03:53:46;7.60;7.30;5.79;3.71;29.90;29.84;29.48;27.65;21.76;0.75
62742;SPS30;48791;51.636;6.010;2023-11-19T03:56:15;7.71;7.42;5.98;3.97;31.96;31.91;31.56;29.80;23.68;0.74
62742;SPS30;48791;51.636;6.010;2023-11-19T03:58:48;7.85;7.53;5.97;3.81;30.74;30.68;30.30;28.41;22.34;0.76
62742;SPS30;48791;51.636;6.010;2023-11-19T04:01:18;7.74;7.42;5.80;3.60;29.06;29.00;28.61;26.66;20.78;0.79
62742;SPS30;48791;51.636;6.010;2023-11-19T04:03:48;8.07;7.74;6.09;3.84;30.94;30.88;30.48;28.49;22.31;0.78
62742;SPS30;48791;51.636;6.010;2023-11-19T04:06:18;9.11;8.71;6.73;4.06;32.76;32.68;32.21;29.84;23.04;0.80
62742;SPS30;48791;51.636;6.010;2023-11-19T04:08:48;9.53;9.09;6.90;3.96;32.04;31.96;31.43;28.82;21.90;0.83
62742;SPS30;48791;51.636;6.010;2023-11-19T04:11:18;8.62;8.23;6.29;3.67;29.70;29.63;29.16;26.84;20.52;0.82
62742;SPS30;48791;51.636;6.010;2023-11-19T04:13:51;8.42;8.05;6.21;3.73;30.10;30.03;29.59;27.39;21.11;0.80
62742;SPS30;48791;51.636;6.010;2023-11-19T04:16:25;9.84;9.38;7.05;3.96;32.05;31.96;31.41;28.66;21.59;0.84
62742;SPS30;48791;51.636;6.010;2023-11-19T04:18:55;10.72;10.18;7.51;3.98;32.25;32.15;31.51;28.36;20.88;0.88
62742;SPS30;48791;51.636;6.010;2023-11-19T04:21:25;10.64;10.09;7.37;3.80;30.84;30.74;30.09;26.89;19.57;0.90
62742;SPS30;48791;51.636;6.010;2023-11-19T04:23:55;12.38;11.71;8.40;4.06;33.07;32.95;32.16;28.27;19.99;0.93
62742;SPS30;48791;51.636;6.010;2023-11-19T04:26:24;12.14;11.50;8.33;4.17;33.91;33.79;33.03;29.31;21.06;0.89
62742;SPS30;48791;51.636;6.010;2023-11-19T04:28:59;11.56;10.97;8.02;4.13;33.53;33.42;32.72;29.24;21.28;0.89
62742;SPS30;48791;51.636;6.010;2023-11-19T04:31:29;12.37;11.71;8.38;4.04;32.85;32.73;31.94;28.04;19.78;0.93
62742;SPS30;48791;51.636;6.010;2023-11-19T04:34:00;13.37;12.64;8.98;4.21;34.31;34.17;33.30;29.03;20.19;0.95
62742;SPS30;48791;51.636;6.010;2023-11-19T04:36:31;12.37;11.70;8.30;3.89;31.72;31.59;30.79;26.83;18.66;0.97
62742;SPS30;48791;51.636;6.010;2023-11-19T04:39:00;13.87;13.11;9.34;4.43;36.06;35.92;35.02;30.62;21.42;0.95
62742;SPS30;48791;51.636;6.010;2023-11-19T04:41:30;13.38;12.66;9.04;4.32;35.20;35.07;34.21;29.98;21.06;0.93
62742;SPS30;48791;51.636;6.010;2023-11-19T04:44:03;13.44;12.72;9.12;4.42;35.95;35.82;34.97;30.75;21.75;0.90
62742;SPS30;48791;51.636;6.010;2023-11-19T04:46:32;13.98;13.22;9.43;4.49;36.57;36.44;35.54;31.10;21.81;0.94
62742;SPS30;48791;51.636;6.010;2023-11-19T04:49:02;15.13;14.28;10.05;4.55;37.14;36.99;35.98;31.05;21.19;0.98
62742;SPS30;48791;51.636;6.010;2023-11-19T04:51:37;14.63;13.81;9.71;4.40;35.94;35.79;34.82;30.05;20.52;0.98
62742;SPS30;48791;51.636;6.010;2023-11-19T04:54:07;14.37;13.60;9.72;4.67;38.02;37.88;36.96;32.43;22.84;0.92
62742;SPS30;48791;51.636;6.010;2023-11-19T04:56:38;14.35;13.59;9.78;4.79;38.95;38.81;37.91;33.44;23.78;0.92
62742;SPS30;48791;51.636;6.010;2023-11-19T04:59:10;14.19;13.43;9.63;4.66;37.97;37.83;36.92;32.48;22.97;0.93
62742;SPS30;48791;51.636;6.010;2023-11-19T05:01:46;14.26;13.48;9.60;4.55;37.04;36.90;35.98;31.45;21.99;0.95
62742;SPS30;48791;51.636;6.010;2023-11-19T05:04:16;15.05;14.22;10.06;4.65;37.90;37.75;36.76;31.90;22.02;0.97
62742;SPS30;48791;51.636;6.010;2023-11-19T05:06:46;14.43;13.65;9.73;4.62;37.63;37.49;36.56;31.98;22.39;0.93
62742;SPS30;48791;51.636;6.010;2023-11-19T05:09:16;14.27;13.52;9.77;4.86;39.49;39.35;38.46;34.06;24.39;0.91
62742;SPS30;48791;51.636;6.010;2023-11-19T05:11:46;14.42;13.68;9.97;5.09;41.35;41.21;40.33;35.97;26.08;0.90
62742;SPS30;48791;51.636;6.010;2023-11-19T05:14:20;14.18;13.47;9.88;5.15;41.80;41.67;40.81;36.59;26.77;0.90
62742;SPS30;48791;51.636;6.010;2023-11-19T05:16:51;13.54;12.86;9.45;4.96;40.27;40.14;39.33;35.32;25.92;0.88
62742;SPS30;48791;51.636;6.010;2023-11-19T05:19:21;15.35;14.55;10.59;5.38;43.70;43.55;42.61;37.95;27.45;0.88
62742;SPS30;48791;51.636;6.010;2023-11-19T05:21:51;14.54;13.80;10.11;5.24;42.57;42.44;41.56;37.21;27.17;0.86
62742;SPS30;48791;51.636;6.010;2023-11-19T05:24:20;15.44;14.63;10.58;5.28;42.96;42.81;41.85;37.11;26.63;0.89
62742;SPS30;48791;51.636;6.010;2023-11-19T05:26:51;15.20;14.41;10.46;5.27;42.83;42.68;41.74;37.11;26.75;0.89
62742;SPS30;48791;51.636;6.010;2023-11-19T05:29:23;14.42;13.69;10.06;5.26;42.72;42.58;41.72;37.44;27.44;0.85
62742;SPS30;48791;51.636;6.010;2023-11-19T05:31:53;11.77;11.21;8.42;4.69;38.01;37.90;37.24;33.92;25.49;0.82
62742;SPS30;48791;51.636;6.010;2023-11-19T05:34:24;12.74;12.13;9.12;5.11;41.34;41.23;40.51;36.94;27.80;0.83
62742;SPS30;48791;51.636;6.010;2023-11-19T05:36:54;13.02;12.39;9.21;5.01;40.58;40.46;39.70;35.96;26.75;0.84
62742;SPS30;48791;51.636;6.010;2023-11-19T05:39:24;13.19;12.52;9.19;4.80;38.92;38.80;38.01;34.08;24.95;0.86
62742;SPS30;48791;51.636;6.010;2023-11-19T05:41:53;13.92;13.24;9.80;5.25;42.54;42.41;41.59;37.54;27.77;0.85
62742;SPS30;48791;51.636;6.010;2023-11-19T05:44:26;14.04;13.33;9.81;5.16;41.87;41.74;40.90;36.75;26.99;0.86
62742;SPS30;48791;51.636;6.010;2023-11-19T05:46:56;15.62;14.79;10.65;5.24;42.60;42.44;41.46;36.61;26.09;0.90
62742;SPS30;48791;51.636;6.010;2023-11-19T05:49:26;13.94;13.23;9.67;4.98;40.44;40.31;39.46;35.27;25.67;0.87
62742;SPS30;48791;51.636;6.010;2023-11-19T05:51:55;14.01;13.27;9.60;4.79;38.92;38.79;37.91;33.61;24.10;0.89
62742;SPS30;48791;51.636;6.010;2023-11-19T05:54:25;14.57;13.81;10.01;5.03;40.89;40.75;39.85;35.39;25.47;0.89
62742;SPS30;48791;51.636;6.010;2023-11-19T05:56:57;13.14;12.47;9.08;4.63;37.61;37.49;36.68;32.70;23.69;0.89
62742;SPS30;48791;51.636;6.010;2023-11-19T05:59:29;14.68;13.91;10.03;4.95;40.28;40.14;39.21;34.67;24.76;0.91
62742;SPS30;48791;51.636;6.010;2023-11-19T06:01:59;14.57;13.79;9.93;4.87;39.59;39.45;38.53;34.00;24.19;0.90
62742;SPS30;48791;51.636;6.010;2023-11-19T06:04:29;13.85;13.11;9.43;4.62;37.58;37.44;36.57;32.26;22.94;0.92
62742;SPS30;48791;51.636;6.010;2023-11-19T06:06:59;14.18;13.44;9.71;4.82;39.23;39.09;38.20;33.83;24.23;0.92
62742;SPS30;48791;51.636;6.010;2023-11-19T06:09:32;14.17;13.41;9.63;4.69;38.19;38.05;37.16;32.73;23.22;0.92
62742;SPS30;48791;51.636;6.010;2023-11-19T06:12:02;16.14;15.24;10.74;4.89;39.93;39.77;38.70;33.45;22.91;0.97
62742;SPS30;48791;51.636;6.010;2023-11-19T06:14:36;16.01;15.11;10.64;4.84;39.51;39.35;38.29;33.08;22.63;0.96
62742;SPS30;48791;51.636;6.010;2023-11-19T06:17:06;15.84;14.94;10.46;4.65;38.01;37.85;36.79;31.57;21.33;0.99
62742;SPS30;48791;51.636;6.010;2023-11-19T06:19:38;17.19;16.20;11.28;4.92;40.22;40.05;38.88;33.16;22.13;1.01
62742;SPS30;48791;51.636;6.010;2023-11-19T06:22:07;16.63;15.69;10.98;4.88;39.85;39.68;38.56;33.08;22.33;0.99
62742;SPS30;48791;51.636;6.010;2023-11-19T06:24:37;16.36;15.43;10.77;4.74;38.75;38.59;37.48;32.06;21.53;1.00
62742;SPS30;48791;51.636;6.010;2023-11-19T06:27:07;15.33;14.46;10.11;4.49;36.66;36.50;35.47;30.41;20.51;0.99
62742;SPS30;48791;51.636;6.010;2023-11-19T06:29:40;16.98;16.02;11.22;5.00;40.82;40.64;39.50;33.91;22.93;0.99
62742;SPS30;48791;51.636;6.010;2023-11-19T06:32:10;16.26;15.34;10.74;4.79;39.09;38.92;37.83;32.47;21.95;1.00
62742;SPS30;48791;51.636;6.010;2023-11-19T06:34:41;17.27;16.28;11.36;4.99;40.80;40.62;39.46;33.73;22.62;0.99
62742;SPS30;48791;51.636;6.010;2023-11-19T06:37:11;16.71;15.77;11.07;4.97;40.60;40.43;39.32;33.84;23.00;0.97
62742;SPS30;48791;51.636;6.010;2023-11-19T06:39:40;16.46;15.53;10.85;4.79;39.12;38.95;37.84;32.40;21.78;1.00
62742;SPS30;48791;51.636;6.010;2023-11-19T06:42:10;16.03;15.12;10.60;4.75;38.78;38.61;37.54;32.28;21.89;0.98
62742;SPS30;48791;51.636;6.010;2023-11-19T06:44:43;15.29;14.44;10.20;4.69;38.24;38.08;37.07;32.13;22.12;0.98
62742;SPS30;48791;51.636;6.010;2023-11-19T06:47:13;15.92;15.04;10.63;4.90;39.99;39.82;38.78;33.64;23.19;0.97
62742;SPS30;48791;51.636;6.010;2023-11-19T06:49:43;15.91;15.03;10.64;4.94;40.25;40.09;39.05;33.93;23.47;0.96
62742;SPS30;48791;51.636;6.010;2023-11-19T06:52:13;17.27;16.28;11.34;4.96;40.55;40.37;39.20;33.46;22.37;1.01
62742;SPS30;48791;51.636;6.010;2023-11-19T06:54:43;17.04;16.08;11.27;5.04;41.11;40.94;39.80;34.20;23.16;0.99
62742;SPS30;48791;51.636;6.010;2023-11-19T06:57:13;15.05;14.22;10.09;4.71;38.39;38.23;37.25;32.42;22.50;0.95
62742;SPS30;48791;51.636;6.010;2023-11-19T06:59:46;14.71;13.93;10.03;4.93;40.14;39.99;39.07;34.50;24.58;0.91
62742;SPS30;48791;51.636;6.010;2023-11-19T07:02:15;16.49;15.58;11.03;5.12;41.75;41.58;40.50;35.19;24.35;0.97
62742;SPS30;48791;51.636;6.010;2023-11-19T07:04:45;16.76;15.80;11.01;4.81;39.33;39.15;38.02;32.44;21.68;1.00
62742;SPS30;48791;51.636;6.010;2023-11-19T07:07:15;17.08;16.08;11.09;4.65;38.08;37.90;36.72;30.92;20.12;1.03
62742;SPS30;48791;51.636;6.010;2023-11-19T07:09:45;17.32;16.31;11.24;4.70;38.50;38.32;37.12;31.23;20.29;1.02
62742;SPS30;48791;51.636;6.010;2023-11-19T07:12:14;18.47;17.38;11.92;4.88;40.02;39.82;38.53;32.19;20.61;1.04
62742;SPS30;48791;51.636;6.010;2023-11-19T07:14:47;16.22;15.28;10.55;4.45;36.45;36.28;35.16;29.67;19.39;1.02
62742;SPS30;48791;51.636;6.010;2023-11-19T07:17:16;19.90;18.73;12.84;5.27;43.19;42.97;41.58;34.76;22.27;1.04
62742;SPS30;48791;51.636;6.010;2023-11-19T07:19:47;20.95;19.68;13.32;5.17;42.49;42.26;40.76;33.41;20.51;1.07
62742;SPS30;48791;51.636;6.010;2023-11-19T07:22:16;18.94;17.81;12.15;4.88;40.05;39.84;38.51;31.95;20.16;1.05
62742;SPS30;48791;51.636;6.010;2023-11-19T07:24:46;19.77;18.59;12.68;5.10;41.83;41.61;40.22;33.38;21.07;1.07
62742;SPS30;48791;51.636;6.010;2023-11-19T07:27:17;19.48;18.31;12.42;4.86;39.96;39.74;38.35;31.54;19.51;1.07
62742;SPS30;48791;51.636;6.010;2023-11-19T07:29:49;19.27;18.11;12.29;4.82;39.58;39.37;38.00;31.26;19.36;1.08
62742;SPS30;48791;51.636;6.010;2023-11-19T07:32:19;20.05;18.85;12.83;5.11;41.94;41.72;40.30;33.33;20.89;1.06
62742;SPS30;48791;51.636;6.010;2023-11-19T07:34:49;19.43;18.28;12.55;5.16;42.31;42.10;40.74;34.09;21.89;1.04
62742;SPS30;48791;51.636;6.010;2023-11-19T07:37:19;17.93;16.87;11.57;4.75;38.93;38.74;37.48;31.34;20.09;1.03
62742;SPS30;48791;51.636;6.010;2023-11-19T07:39:49;17.37;16.36;11.29;4.75;38.87;38.68;37.48;31.59;20.60;1.03
62742;SPS30;48791;51.636;6.010;2023-11-19T07:42:19;19.35;18.19;12.40;4.96;40.72;40.51;39.14;32.43;20.40;1.08
62742;SPS30;48791;51.636;6.010;2023-11-19T07:44:52;19.55;18.37;12.49;4.95;40.61;40.40;39.01;32.20;20.09;1.06
62742;SPS30;48791;51.636;6.010;2023-11-19T07:47:23;19.16;18.03;12.34;5.03;41.22;41.01;39.67;33.07;21.08;1.05
62742;SPS30;48791;51.636;6.010;2023-11-19T07:49:52;18.51;17.42;11.98;4.98;40.77;40.57;39.28;32.97;21.31;1.05
62742;SPS30;48791;51.636;6.010;2023-11-19T07:52:22;18.22;17.15;11.82;4.96;40.61;40.41;39.15;32.97;21.45;1.04
62742;SPS30;48791;51.636;6.010;2023-11-19T07:54:52;17.25;16.25;11.22;4.74;38.79;38.60;37.41;31.58;20.64;1.03
62742;SPS30;48791;51.636;6.010;2023-11-19T07:57:22;19.28;18.14;12.45;5.13;42.03;41.82;40.48;33.88;21.77;1.04
62742;SPS30;48791;51.636;6.010;2023-11-19T07:59:56;18.56;17.47;12.01;4.98;40.82;40.62;39.33;32.99;21.30;1.03
62742;SPS30;48791;51.636;6.010;2023-11-19T08:02:38;18.74;17.66;12.23;5.21;42.66;42.46;41.18;34.86;22.94;1.02
62742;SPS30;48791;51.636;6.010;2023-11-19T08:05:08;18.87;17.77;12.30;5.24;42.91;42.72;41.42;35.07;23.07;1.03
62742;SPS30;48791;51.636;6.010;2023-11-19T08:07:38;17.49;16.48;11.41;4.88;39.91;39.73;38.53;32.64;21.51;1.03
62742;SPS30;48791;51.636;6.010;2023-11-19T08:10:08;19.33;18.18;12.43;5.04;41.36;41.15;39.79;33.13;21.06;1.06
62742;SPS30;48791;51.636;6.010;2023-11-19T08:12:38;18.34;17.25;11.83;4.84;39.70;39.50;38.21;31.92;20.43;1.04
62742;SPS30;48791;51.636;6.010;2023-11-19T08:15:11;17.58;16.54;11.37;4.70;38.49;38.30;37.07;31.06;20.01;1.04
62742;SPS30;48791;51.636;6.010;2023-11-19T08:17:40;21.61;20.29;13.72;5.30;43.54;43.30;41.75;34.15;20.87;1.07
62742;SPS30;48791;51.636;6.010;2023-11-19T08:20:11;19.26;18.10;12.34;4.93;40.47;40.26;38.90;32.22;20.25;1.04
62742;SPS30;48791;51.636;6.010;2023-11-19T08:22:41;18.60;17.49;11.91;4.75;38.99;38.79;37.47;31.01;19.46;1.07
62742;SPS30;48791;51.636;6.010;2023-11-19T08:25:11;19.25;18.10;12.35;4.96;40.70;40.50;39.14;32.47;20.49;1.07
62742;SPS30;48791;51.636;6.010;2023-11-19T08:27:41;19.38;18.21;12.38;4.88;40.08;39.87;38.49;31.73;19.74;1.08
62742;SPS30;48791;51.636;6.010;2023-11-19T08:30:13;19.61;18.44;12.60;5.09;41.72;41.50;40.12;33.35;21.12;1.07
62742;SPS30;48791;51.636;6.010;2023-11-19T08:32:43;19.66;18.47;12.53;4.90;40.28;40.06;38.66;31.78;19.64;1.08
62742;SPS30;48791;51.636;6.010;2023-11-19T08:35:13;20.36;19.13;12.94;5.00;41.09;40.87;39.40;32.24;19.73;1.09
62742;SPS30;48791;51.636;6.010;2023-11-19T08:37:43;19.82;18.62;12.62;4.92;40.44;40.22;38.80;31.86;19.64;1.07
62742;SPS30;48791;51.636;6.010;2023-11-19T08:40:13;19.65;18.48;12.60;5.05;41.42;41.21;39.82;33.01;20.78;1.05
62742;SPS30;48791;51.636;6.010;2023-11-19T08:42:43;18.63;17.53;12.03;4.95;40.58;40.38;39.08;32.70;21.00;1.03
62742;SPS30;48791;51.636;6.010;2023-11-19T08:45:15;17.83;16.78;11.55;4.81;39.39;39.20;37.96;31.89;20.65;1.04
62742;SPS30;48791;51.636;6.010;2023-11-19T08:47:45;20.16;18.92;12.75;4.85;39.90;39.68;38.22;31.09;18.76;1.10
62742;SPS30;48791;51.636;6.010;2023-11-19T08:50:15;21.29;19.98;13.42;5.04;41.47;41.23;39.68;32.11;19.15;1.09
62742;SPS30;48791;51.636;6.010;2023-11-19T08:52:45;19.01;17.85;12.10;4.72;38.77;38.56;37.20;30.54;18.82;1.07
62742;SPS30;48791;51.636;6.010;2023-11-19T08:55:14;17.45;16.43;11.34;4.78;39.11;38.93;37.72;31.81;20.76;1.04
62742;SPS30;48791;51.636;6.010;2023-11-19T08:57:44;17.54;16.51;11.37;4.74;38.83;38.65;37.43;31.46;20.39;1.05
62742;SPS30;48791;51.636;6.010;2023-11-19T09:00:12;17.90;16.84;11.57;4.77;39.11;38.91;37.67;31.55;20.30;1.06
62742;SPS30;48791;51.636;6.010;2023-11-19T09:02:45;17.49;16.48;11.38;4.82;39.44;39.25;38.05;32.14;21.04;1.03
62742;SPS30;48791;51.636;6.010;2023-11-19T09:05:15;17.19;16.19;11.20;4.76;38.98;38.80;37.62;31.83;20.90;1.02
62742;SPS30;48791;51.636;6.010;2023-11-19T09:07:45;19.03;17.89;12.23;4.94;40.55;40.34;39.00;32.43;20.56;1.05
62742;SPS30;48791;51.636;6.010;2023-11-19T09:10:16;19.42;18.27;12.47;5.03;41.26;41.05;39.68;32.97;20.86;1.04
62742;SPS30;48791;51.636;6.010;2023-11-19T09:12:46;20.83;19.58;13.28;5.21;42.79;42.56;41.07;33.79;20.92;1.07
62742;SPS30;48791;51.636;6.010;2023-11-19T09:15:16;19.18;18.04;12.35;5.02;41.13;40.93;39.58;32.97;20.98;1.05
62742;SPS30;48791;51.636;6.010;2023-11-19T09:17:48;19.47;18.30;12.46;4.97;40.77;40.56;39.18;32.42;20.33;1.06